Time;durP1;ratioP1;P1;durP2;ratioP2;P2;SDS_P1;SDS_P2;PMS_P1;PMS_P2;Temp;Humidity;BMP_temperature;BMP_pressure;BME280_temperature;BME280_humidity;BME280_pressure;Samples;Min_cycle;Max_cycle;Signal;HPM_P1;HPM_P2
2022/03/23 00:01:22;;;;;;;18.02;9.02;;;;;;;;;;5026655;28;20028;-85
2022/03/23 00:03:48;;;;;;;15.25;9.15;;;;;;;;;;5026234;28;20025;-85
2022/03/23 00:06:17;;;;;;;19.13;8.35;;;;;;;;;;5023976;28;20029;-87
2022/03/23 00:08:43;;;;;;;16.83;9.02;;;;;;;;;;5038641;28;20049;-86
2022/03/23 00:11:09;;;;;;;17.88;9.32;;;;;;;;;;5037377;28;20041;-86
2022/03/23 00:13:36;;;;;;;22.08;9.35;;;;;;;;;;5018578;28;20083;-86
2022/03/23 00:16:04;;;;;;;16.85;9.27;;;;;;;;;;5036297;28;20025;-86
2022/03/23 00:18:30;;;;;;;16.33;9.00;;;;;;;;;;5036591;28;20045;-86
2022/03/23 00:20:56;;;;;;;21.45;9.65;;;;;;;;;;5018183;28;20374;-86
2022/03/23 00:23:22;;;;;;;17.02;8.85;;;;;;;;;;5035939;28;20052;-87
2022/03/23 00:25:48;;;;;;;18.08;10.25;;;;;;;;;;5036611;28;20477;-86
2022/03/23 00:28:14;;;;;;;20.13;9.25;;;;;;;;;;5037722;28;20079;-89
2022/03/23 00:30:40;;;;;;;22.30;10.30;;;;;;;;;;5035855;28;20052;-86
2022/03/23 00:33:06;;;;;;;16.77;9.27;;;;;;;;;;5018315;28;20018;-86
2022/03/23 00:35:33;;;;;;;16.23;9.40;;;;;;;;;;5036324;28;20113;-86
2022/03/23 00:37:59;;;;;;;17.70;9.00;;;;;;;;;;5036073;28;20025;-85
2022/03/23 00:40:29;;;;;;;20.85;9.40;;;;;;;;;;5036846;28;20029;-86
2022/03/23 00:42:58;;;;;;;22.13;10.03;;;;;;;;;;5037515;28;20022;-86
2022/03/23 00:45:24;;;;;;;21.10;9.93;;;;;;;;;;5036988;28;20600;-87
2022/03/23 00:47:50;;;;;;;15.85;9.27;;;;;;;;;;5019274;28;20052;-86
2022/03/23 00:50:17;;;;;;;13.93;8.60;;;;;;;;;;5018663;28;20081;-85
2022/03/23 00:52:46;;;;;;;14.23;8.40;;;;;;;;;;5018672;28;20529;-86
2022/03/23 00:55:13;;;;;;;15.07;8.75;;;;;;;;;;5018176;28;20033;-87
2022/03/23 00:57:39;;;;;;;17.55;9.80;;;;;;;;;;5019124;28;20029;-86
2022/03/23 01:00:09;;;;;;;18.17;9.35;;;;;;;;;;5046468;28;20041;-86
2022/03/23 01:02:35;;;;;;;17.58;10.10;;;;;;;;;;5023896;28;20116;-87
2022/03/23 01:05:02;;;;;;;20.45;9.75;;;;;;;;;;5019897;28;20041;-87
2022/03/23 01:07:28;;;;;;;23.98;9.68;;;;;;;;;;5036210;28;20531;-86
2022/03/23 01:09:54;;;;;;;18.00;9.63;;;;;;;;;;5036282;28;20024;-84
2022/03/23 01:12:20;;;;;;;18.20;9.65;;;;;;;;;;5035921;28;20026;-86
2022/03/23 01:14:46;;;;;;;19.15;10.25;;;;;;;;;;5036263;28;20113;-86
2022/03/23 01:17:12;;;;;;;20.58;10.50;;;;;;;;;;5017758;28;20452;-86
2022/03/23 01:19:38;;;;;;;20.42;10.70;;;;;;;;;;5037047;28;20030;-85
2022/03/23 01:22:05;;;;;;;17.27;9.82;;;;;;;;;;5032091;28;20470;-84
2022/03/23 01:24:31;;;;;;;18.65;9.98;;;;;;;;;;5032987;28;20018;-85
2022/03/23 01:26:57;;;;;;;18.98;9.77;;;;;;;;;;5032548;28;20033;-85
2022/03/23 01:29:23;;;;;;;19.73;10.13;;;;;;;;;;5014884;28;20045;-86
2022/03/23 01:31:49;;;;;;;19.33;10.07;;;;;;;;;;5033544;28;20029;-85
2022/03/23 01:34:15;;;;;;;23.95;10.80;;;;;;;;;;5036140;28;20040;-84
2022/03/23 01:36:41;;;;;;;22.48;10.40;;;;;;;;;;5036764;28;20033;-86
2022/03/23 01:39:07;;;;;;;19.55;9.65;;;;;;;;;;5019413;28;20061;-86
2022/03/23 01:41:37;;;;;;;21.15;10.90;;;;;;;;;;5036755;28;20072;-82
2022/03/23 01:44:23;;;;;;;23.40;10.50;;;;;;;;;;5018353;28;20021;-86
2022/03/23 01:47:03;;;;;;;17.92;10.43;;;;;;;;;;5018392;28;20025;-85
2022/03/23 01:49:30;;;;;;;20.00;10.32;;;;;;;;;;5036382;28;20041;-85
2022/03/23 01:51:56;;;;;;;23.60;10.27;;;;;;;;;;5036777;28;20049;-85
2022/03/23 01:54:22;;;;;;;25.75;12.10;;;;;;;;;;5036590;28;20052;-85
2022/03/23 01:56:49;;;;;;;18.63;10.73;;;;;;;;;;5036992;28;20030;-87
2022/03/23 01:59:16;;;;;;;18.88;10.45;;;;;;;;;;5037165;28;20022;-86
2022/03/23 02:01:43;;;;;;;23.20;11.40;;;;;;;;;;5036668;28;20087;-88
2022/03/23 02:04:09;;;;;;;25.05;11.10;;;;;;;;;;5037177;28;20540;-87
2022/03/23 02:06:35;;;;;;;28.10;12.60;;;;;;;;;;5019592;28;20053;-87
2022/03/23 02:09:01;;;;;;;23.17;12.23;;;;;;;;;;5019251;28;20021;-87
2022/03/23 02:11:29;;;;;;;24.00;11.93;;;;;;;;;;5037102;28;20029;-85
2022/03/23 02:13:55;;;;;;;24.02;13.07;;;;;;;;;;5018975;28;20018;-86
2022/03/23 02:16:21;;;;;;;26.35;12.10;;;;;;;;;;5035878;28;20060;-86
2022/03/23 02:18:48;;;;;;;25.88;13.23;;;;;;;;;;5035484;28;20049;-86
2022/03/23 02:21:14;;;;;;;23.33;12.65;;;;;;;;;;5036387;28;20033;-84
2022/03/23 02:23:40;;;;;;;22.80;11.82;;;;;;;;;;5036480;28;20052;-86
2022/03/23 02:26:07;;;;;;;26.15;13.18;;;;;;;;;;5035839;28;20470;-86
2022/03/23 02:28:34;;;;;;;26.25;13.20;;;;;;;;;;5018339;28;20443;-86
2022/03/23 02:31:01;;;;;;;22.40;12.30;;;;;;;;;;5036875;28;20117;-86
2022/03/23 02:33:27;;;;;;;27.23;12.85;;;;;;;;;;5018997;28;20021;-86
2022/03/23 02:35:54;;;;;;;24.85;12.85;;;;;;;;;;5036919;28;20052;-87
2022/03/23 02:38:20;;;;;;;24.05;12.55;;;;;;;;;;5018444;28;20490;-86
2022/03/23 02:40:46;;;;;;;23.77;12.32;;;;;;;;;;5018785;28;20022;-86
2022/03/23 02:43:12;;;;;;;23.92;13.05;;;;;;;;;;5035976;28;20112;-87
2022/03/23 02:45:38;;;;;;;29.58;14.80;;;;;;;;;;5018445;28;20029;-86
2022/03/23 02:48:06;;;;;;;26.08;13.45;;;;;;;;;;5018426;28;20573;-86
2022/03/23 02:50:32;;;;;;;21.95;12.15;;;;;;;;;;5036705;28;20017;-88
2022/03/23 03:04:17;;;;;;;21.73;12.15;;;;;;;;;;5036425;28;20087;-86
2022/03/23 03:06:43;;;;;;;25.08;12.40;;;;;;;;;;5035970;28;20025;-87
2022/03/23 03:09:09;;;;;;;29.13;13.93;;;;;;;;;;5036211;28;20045;-87
2022/03/23 03:11:35;;;;;;;24.52;12.50;;;;;;;;;;5035447;28;20033;-87
2022/03/23 03:14:01;;;;;;;23.50;14.00;;;;;;;;;;5035951;28;20440;-86
2022/03/23 03:16:27;;;;;;;24.33;12.88;;;;;;;;;;5036511;28;20083;-86
2022/03/23 03:18:53;;;;;;;26.35;14.60;;;;;;;;;;5018628;28;20116;-83
2022/03/23 03:21:19;;;;;;;29.38;13.82;;;;;;;;;;5043274;28;20064;-86
2022/03/23 03:23:46;;;;;;;29.17;15.55;;;;;;;;;;5056832;28;20021;-88
2022/03/23 03:26:12;;;;;;;31.08;14.95;;;;;;;;;;5040602;28;20018;-88
2022/03/23 03:28:39;;;;;;;31.67;14.77;;;;;;;;;;5057460;28;20026;-86
2022/03/23 03:31:07;;;;;;;30.40;14.98;;;;;;;;;;5057256;28;20021;-88
2022/03/23 03:33:33;;;;;;;32.30;14.40;;;;;;;;;;5026322;28;20512;-85
2022/03/23 03:35:59;;;;;;;34.33;14.82;;;;;;;;;;5015617;28;20034;-85
2022/03/23 03:38:26;;;;;;;31.92;15.55;;;;;;;;;;5015960;28;20030;-85
2022/03/23 03:40:52;;;;;;;30.33;14.70;;;;;;;;;;5034051;28;20056;-85
2022/03/23 03:43:18;;;;;;;32.97;15.90;;;;;;;;;;5033853;28;20021;-86
2022/03/23 03:45:45;;;;;;;30.23;15.02;;;;;;;;;;5015921;28;20031;-86
2022/03/23 03:48:11;;;;;;;34.28;15.02;;;;;;;;;;5033989;28;20025;-86
2022/03/23 03:50:37;;;;;;;31.80;15.48;;;;;;;;;;5015807;28;20033;-86
2022/03/23 03:53:03;;;;;;;29.17;14.65;;;;;;;;;;5025301;28;20036;-85
2022/03/23 03:55:29;;;;;;;28.23;13.82;;;;;;;;;;5036074;28;20467;-87
2022/03/23 03:57:55;;;;;;;29.63;14.15;;;;;;;;;;5018385;28;20057;-83
2022/03/23 04:00:21;;;;;;;24.65;13.85;;;;;;;;;;5019641;28;20091;-86
2022/03/23 04:02:47;;;;;;;23.13;12.38;;;;;;;;;;5036181;28;20037;-85
2022/03/23 04:05:13;;;;;;;35.65;12.80;;;;;;;;;;5035527;28;20105;-85
2022/03/23 04:07:39;;;;;;;30.42;14.38;;;;;;;;;;5034870;28;20022;-86
2022/03/23 04:10:05;;;;;;;31.70;14.63;;;;;;;;;;5033849;28;20192;-84
2022/03/23 04:12:31;;;;;;;26.52;13.68;;;;;;;;;;5040748;28;20029;-84
2022/03/23 04:14:57;;;;;;;25.98;13.90;;;;;;;;;;5021961;28;20033;-87
2022/03/23 04:17:24;;;;;;;24.02;12.25;;;;;;;;;;5018212;28;20021;-88
2022/03/23 04:19:50;;;;;;;28.90;13.07;;;;;;;;;;5018781;28;20033;-86
2022/03/23 04:22:16;;;;;;;25.95;13.52;;;;;;;;;;5017746;28;20013;-86
2022/03/23 04:24:42;;;;;;;27.05;13.10;;;;;;;;;;5035703;28;20025;-85
2022/03/23 04:27:08;;;;;;;25.13;13.88;;;;;;;;;;5034236;28;20473;-84
2022/03/23 04:29:34;;;;;;;26.08;13.45;;;;;;;;;;5034724;28;20029;-82
2022/03/23 04:32:00;;;;;;;27.17;14.52;;;;;;;;;;5034085;28;20025;-85
2022/03/23 04:34:26;;;;;;;26.35;14.43;;;;;;;;;;5035124;28;20032;-85
2022/03/23 04:36:52;;;;;;;25.67;13.93;;;;;;;;;;5017479;28;20068;-86
2022/03/23 04:39:18;;;;;;;25.98;13.35;;;;;;;;;;5036340;28;20032;-84
2022/03/23 04:41:44;;;;;;;26.88;14.02;;;;;;;;;;5036031;28;20393;-87
2022/03/23 04:44:11;;;;;;;29.15;15.55;;;;;;;;;;5017775;28;20076;-86
2022/03/23 04:46:37;;;;;;;33.53;16.27;;;;;;;;;;5016681;28;20116;-85
2022/03/23 04:49:03;;;;;;;33.30;15.07;;;;;;;;;;5035323;28;20103;-86
2022/03/23 04:51:31;;;;;;;26.70;14.25;;;;;;;;;;5016524;28;20021;-84
2022/03/23 04:53:57;;;;;;;33.92;16.15;;;;;;;;;;5034127;28;20489;-85
2022/03/23 04:56:23;;;;;;;25.98;15.32;;;;;;;;;;5017182;28;20075;-84
2022/03/23 04:58:49;;;;;;;24.48;14.32;;;;;;;;;;5051666;28;20041;-87
2022/03/23 05:01:15;;;;;;;25.75;13.93;;;;;;;;;;5050489;28;20028;-84
2022/03/23 05:03:41;;;;;;;28.60;15.55;;;;;;;;;;5049632;28;20033;-85
2022/03/23 05:06:07;;;;;;;33.15;16.15;;;;;;;;;;5044095;28;20029;-85
2022/03/23 05:08:33;;;;;;;25.70;13.98;;;;;;;;;;5048027;28;20033;-85
2022/03/23 05:10:59;;;;;;;32.08;15.90;;;;;;;;;;5047518;28;20442;-83
2022/03/23 05:13:25;;;;;;;32.97;15.77;;;;;;;;;;5048059;28;20018;-85
2022/03/23 05:15:51;;;;;;;27.60;14.90;;;;;;;;;;5047338;28;20022;-84
2022/03/23 05:18:17;;;;;;;31.65;16.17;;;;;;;;;;5050848;28;20029;-84
2022/03/23 05:20:43;;;;;;;32.50;15.75;;;;;;;;;;5043967;28;20076;-86
2022/03/23 05:23:09;;;;;;;31.85;16.98;;;;;;;;;;5022218;28;20029;-86
2022/03/23 05:25:36;;;;;;;34.00;16.40;;;;;;;;;;5003347;28;20026;-85
2022/03/23 05:28:02;;;;;;;35.72;16.98;;;;;;;;;;5021657;28;20026;-86
2022/03/23 05:30:28;;;;;;;32.92;16.98;;;;;;;;;;5022787;28;20087;-86
2022/03/23 05:32:54;;;;;;;32.80;17.08;;;;;;;;;;5022151;28;20127;-84
2022/03/23 05:35:20;;;;;;;40.78;19.05;;;;;;;;;;5003139;28;20034;-86
2022/03/23 05:37:46;;;;;;;42.90;19.42;;;;;;;;;;5023340;28;20030;-86
2022/03/23 05:40:13;;;;;;;35.63;19.17;;;;;;;;;;5040085;28;20025;-87
2022/03/23 05:42:39;;;;;;;35.83;17.90;;;;;;;;;;5039897;28;20022;-87
2022/03/23 05:45:09;;;;;;;32.28;16.17;;;;;;;;;;5022021;28;20028;-86
2022/03/23 05:47:39;;;;;;;31.25;16.63;;;;;;;;;;5020113;28;20022;-86
2022/03/23 05:53:32;;;;;;;39.33;19.05;;;;;;;;;;5027016;28;20029;-85
2022/03/23 05:55:59;;;;;;;44.42;19.88;;;;;;;;;;5034984;28;20072;-84
2022/03/23 05:58:25;;;;;;;42.08;18.15;;;;;;;;;;5020759;28;20025;-85
2022/03/23 06:01:10;;;;;;;40.78;18.63;;;;;;;;;;5023114;28;20087;-84
2022/03/23 06:03:37;;;;;;;44.13;18.58;;;;;;;;;;5040520;28;20049;-86
2022/03/23 06:06:06;;;;;;;38.38;18.55;;;;;;;;;;5038454;28;20033;-87
2022/03/23 06:08:32;;;;;;;38.47;19.52;;;;;;;;;;5039104;28;20033;-86
2022/03/23 06:11:09;;;;;;;37.30;17.85;;;;;;;;;;5020073;28;20034;-86
2022/03/23 06:13:40;;;;;;;41.85;20.40;;;;;;;;;;5038640;28;20081;-87
2022/03/23 06:16:07;;;;;;;37.42;19.45;;;;;;;;;;5020984;28;20026;-85
2022/03/23 06:18:40;;;;;;;38.97;19.50;;;;;;;;;;5037483;28;20038;-86
2022/03/23 06:21:12;;;;;;;41.90;19.45;;;;;;;;;;5020745;28;20091;-85
2022/03/23 06:23:41;;;;;;;35.38;18.92;;;;;;;;;;5021040;28;20048;-87
2022/03/23 06:26:07;;;;;;;41.80;19.48;;;;;;;;;;5020742;28;20022;-86
2022/03/23 06:28:34;;;;;;;35.17;18.23;;;;;;;;;;5018324;28;20438;-86
2022/03/23 06:31:05;;;;;;;45.60;19.08;;;;;;;;;;5034899;28;20068;-87
2022/03/23 06:33:31;;;;;;;37.83;19.35;;;;;;;;;;5037230;28;20052;-88
2022/03/23 06:36:36;;;;;;;41.45;19.20;;;;;;;;;;5035974;28;20449;-87
2022/03/23 06:39:34;;;;;;;42.22;20.00;;;;;;;;;;5036933;28;20492;-87
2022/03/23 06:45:25;;;;;;;36.80;18.73;;;;;;;;;;4953480;29;20031;-86
2022/03/23 06:47:56;;;;;;;35.63;18.55;;;;;;;;;;4934570;28;20110;-87
2022/03/23 06:50:25;;;;;;;35.55;17.92;;;;;;;;;;4993195;28;20026;-87
2022/03/23 06:52:51;;;;;;;40.03;17.80;;;;;;;;;;5016485;28;20176;-87
2022/03/23 06:55:17;;;;;;;32.25;16.88;;;;;;;;;;5029709;28;20033;-88
2022/03/23 06:57:54;;;;;;;40.40;19.63;;;;;;;;;;5018848;28;20026;-88
2022/03/23 07:00:20;;;;;;;37.00;18.63;;;;;;;;;;4999769;28;20048;-88
2022/03/23 07:02:50;;;;;;;46.65;20.55;;;;;;;;;;5017951;28;20451;-88
2022/03/23 07:11:18;;;;;;;38.55;19.63;;;;;;;;;;5034037;28;20052;-88
2022/03/23 07:16:30;;;;;;;35.47;18.58;;;;;;;;;;5466060;22;20058;-89
2022/03/23 07:25:08;;;;;;;;;;;;;;;;;;;;;
2022/03/23 07:27:35;;;;;;;41.38;19.90;;;;;;;;;;4975903;28;20177;-88
2022/03/23 07:33:04;;;;;;;36.47;18.60;;;;;;;;;;5013283;28;20128;-88
2022/03/23 07:35:30;;;;;;;36.03;19.65;;;;;;;;;;5012877;28;20022;-87
2022/03/23 07:37:56;;;;;;;37.83;19.25;;;;;;;;;;5013845;28;20411;-87
2022/03/23 07:40:23;;;;;;;42.70;19.95;;;;;;;;;;5013881;28;20030;-87
2022/03/23 07:42:49;;;;;;;35.85;18.15;;;;;;;;;;4996493;28;20533;-88
2022/03/23 07:45:15;;;;;;;32.05;17.67;;;;;;;;;;5014226;28;20049;-87
2022/03/23 07:47:44;;;;;;;35.53;16.83;;;;;;;;;;5014087;28;20030;-89
2022/03/23 07:50:10;;;;;;;34.55;17.88;;;;;;;;;;4997183;28;20061;-89
2022/03/23 07:52:42;;;;;;;35.10;18.17;;;;;;;;;;5013527;28;20543;-88
2022/03/23 07:55:17;;;;;;;35.65;18.45;;;;;;;;;;5002652;28;20030;-87
2022/03/23 07:57:45;;;;;;;35.30;18.00;;;;;;;;;;4994149;28;20030;-89
2022/03/23 08:00:17;;;;;;;32.72;17.00;;;;;;;;;;4993535;28;20506;-88
2022/03/23 08:02:44;;;;;;;30.48;16.85;;;;;;;;;;4990245;28;20541;-87
2022/03/23 08:05:17;;;;;;;31.25;16.83;;;;;;;;;;5012978;28;20169;-89
2022/03/23 08:07:45;;;;;;;33.15;16.73;;;;;;;;;;4977558;28;20105;-88
2022/03/23 08:10:11;;;;;;;31.17;17.80;;;;;;;;;;4988365;28;20116;-87
2022/03/23 08:12:37;;;;;;;31.73;16.20;;;;;;;;;;5012930;28;20648;-89
2022/03/23 08:15:09;;;;;;;31.52;17.42;;;;;;;;;;4995993;28;20080;-87
2022/03/23 08:24:00;;;;;;;34.95;18.83;;;;;;;;;;4979743;28;20037;-87
2022/03/23 08:26:29;;;;;;;34.13;17.05;;;;;;;;;;5014811;28;20034;-87
2022/03/23 08:35:35;;;;;;;36.50;18.52;;;;;;;;;;4933390;29;20063;-85
2022/03/23 08:38:04;;;;;;;29.58;17.73;;;;;;;;;;4990551;28;20096;-87
2022/03/23 08:40:46;;;;;;;32.90;18.35;;;;;;;;;;5006170;22;20076;-88
2022/03/23 08:43:14;;;;;;;33.17;18.15;;;;;;;;;;5002660;28;20030;-86
2022/03/23 08:45:43;;;;;;;33.17;18.58;;;;;;;;;;4986442;28;20018;-85
2022/03/23 08:48:09;;;;;;;32.20;19.23;;;;;;;;;;4994803;28;20027;-85
2022/03/23 08:50:36;;;;;;;33.78;17.52;;;;;;;;;;4988122;28;20030;-87
2022/03/23 08:53:03;;;;;;;30.02;18.25;;;;;;;;;;5007142;28;20673;-85
2022/03/23 08:55:29;;;;;;;30.15;17.10;;;;;;;;;;4983381;28;20054;-85
2022/03/23 08:57:56;;;;;;;36.60;16.95;;;;;;;;;;4995662;28;20048;-86
2022/03/23 09:00:22;;;;;;;33.03;17.75;;;;;;;;;;4983062;28;20427;-85
2022/03/23 09:02:48;;;;;;;30.42;16.00;;;;;;;;;;4993349;28;20414;-85
2022/03/23 09:05:14;;;;;;;28.48;15.38;;;;;;;;;;4999456;28;20045;-85
2022/03/23 09:07:43;;;;;;;31.38;15.93;;;;;;;;;;4992299;28;20038;-87
2022/03/23 09:10:11;;;;;;;25.52;15.55;;;;;;;;;;4974549;28;20026;-85
2022/03/23 09:12:38;;;;;;;23.77;13.77;;;;;;;;;;4991597;28;20126;-85
2022/03/23 09:15:05;;;;;;;24.27;14.23;;;;;;;;;;4996054;28;20026;-87
2022/03/23 09:17:31;;;;;;;30.80;14.63;;;;;;;;;;5003877;28;20034;-87
2022/03/23 09:20:04;;;;;;;22.17;13.50;;;;;;;;;;4998815;28;20026;-87
2022/03/23 09:22:34;;;;;;;24.10;14.23;;;;;;;;;;4972929;28;20030;-87
2022/03/23 09:25:03;;;;;;;25.02;13.77;;;;;;;;;;4975649;28;20111;-86
2022/03/23 09:27:29;;;;;;;24.52;13.80;;;;;;;;;;4991341;28;20038;-86
2022/03/23 09:29:55;;;;;;;22.80;13.35;;;;;;;;;;4992067;28;20029;-87
2022/03/23 09:32:43;;;;;;;21.00;14.85;;;;;;;;;;4987969;28;20025;-87
2022/03/23 09:35:09;;;;;;;24.67;14.55;;;;;;;;;;4955517;28;20031;-87
2022/03/23 09:37:48;;;;;;;24.00;12.88;;;;;;;;;;4983600;28;20100;-85
2022/03/23 09:40:17;;;;;;;18.92;13.10;;;;;;;;;;5011069;28;20026;-86
2022/03/23 09:42:43;;;;;;;19.13;12.98;;;;;;;;;;4997609;28;20035;-86
2022/03/23 09:45:11;;;;;;;22.42;13.35;;;;;;;;;;5009529;28;20038;-85
2022/03/23 09:47:38;;;;;;;19.80;13.00;;;;;;;;;;5000229;28;20038;-85
2022/03/23 09:50:04;;;;;;;23.38;13.18;;;;;;;;;;4998861;28;20137;-83
2022/03/23 09:52:30;;;;;;;19.33;12.00;;;;;;;;;;4974519;28;20506;-86
2022/03/23 09:54:56;;;;;;;18.25;11.88;;;;;;;;;;4995987;28;20556;-84
2022/03/23 09:57:22;;;;;;;18.13;12.10;;;;;;;;;;4994773;28;20023;-84
2022/03/23 09:59:48;;;;;;;22.65;13.25;;;;;;;;;;4995253;28;20121;-84
2022/03/23 10:02:33;;;;;;;18.35;12.43;;;;;;;;;;5005041;28;20030;-84
2022/03/23 10:05:17;;;;;;;17.98;11.82;;;;;;;;;;5012777;28;20037;-84
2022/03/23 10:08:02;;;;;;;17.63;11.63;;;;;;;;;;4983229;28;20513;-84
2022/03/23 10:10:58;;;;;;;20.85;12.25;;;;;;;;;;4994566;28;20026;-85
2022/03/23 10:13:42;;;;;;;20.17;11.52;;;;;;;;;;4980055;28;20034;-86
2022/03/23 10:16:23;;;;;;;16.38;11.02;;;;;;;;;;4994528;28;20379;-85
2022/03/23 10:18:53;;;;;;;21.98;12.63;;;;;;;;;;4996713;28;20076;-85
2022/03/23 10:21:20;;;;;;;22.17;12.75;;;;;;;;;;5013820;28;20030;-85
2022/03/23 10:23:58;;;;;;;17.80;12.82;;;;;;;;;;4975014;28;20023;-85
2022/03/23 10:26:24;;;;;;;17.65;12.27;;;;;;;;;;4957736;28;20555;-86
2022/03/23 10:28:51;;;;;;;22.00;13.00;;;;;;;;;;4982561;28;20029;-85
2022/03/23 10:31:20;;;;;;;19.80;13.05;;;;;;;;;;4961526;28;20031;-85
2022/03/23 10:33:59;;;;;;;24.27;13.30;;;;;;;;;;4957819;28;20499;-87
2022/03/23 10:36:28;;;;;;;15.93;12.05;;;;;;;;;;5002612;28;20038;-87
2022/03/23 10:39:01;;;;;;;18.83;11.57;;;;;;;;;;4995863;28;20033;-85
2022/03/23 10:41:29;;;;;;;20.08;13.15;;;;;;;;;;4993707;28;20030;-86
2022/03/23 10:44:04;;;;;;;17.52;12.23;;;;;;;;;;4994458;28;20077;-86
2022/03/23 10:46:30;;;;;;;21.23;12.55;;;;;;;;;;4975667;28;20046;-85
2022/03/23 10:49:03;;;;;;;18.90;13.25;;;;;;;;;;4975901;28;20038;-87
2022/03/23 10:51:30;;;;;;;17.38;12.10;;;;;;;;;;4976474;28;20505;-87
2022/03/23 10:53:56;;;;;;;16.73;12.20;;;;;;;;;;4981610;28;20034;-87
2022/03/23 10:56:33;;;;;;;17.15;11.65;;;;;;;;;;4993543;28;20049;-86
2022/03/23 10:59:21;;;;;;;18.88;13.27;;;;;;;;;;5017612;28;20045;-88
2022/03/23 11:02:07;;;;;;;18.77;13.82;;;;;;;;;;5016011;28;20034;-87
2022/03/23 11:04:42;;;;;;;24.98;13.73;;;;;;;;;;4995829;28;20080;-87
2022/03/23 11:07:23;;;;;;;17.35;12.82;;;;;;;;;;4996362;28;20022;-87
2022/03/23 11:18:09;;;;;;;15.82;11.85;;;;;;;;;;4992633;28;20041;-85
2022/03/23 11:20:55;;;;;;;20.10;12.75;;;;;;;;;;4993733;28;20122;-86
2022/03/23 11:23:23;;;;;;;16.60;12.02;;;;;;;;;;4993521;28;20102;-88
2022/03/23 11:25:53;;;;;;;15.13;12.45;;;;;;;;;;4975910;28;20038;-87
2022/03/23 11:28:20;;;;;;;19.05;13.27;;;;;;;;;;4976073;28;20026;-87
2022/03/23 11:30:47;;;;;;;16.58;12.55;;;;;;;;;;4976604;28;20030;-88
2022/03/23 11:33:15;;;;;;;19.85;12.13;;;;;;;;;;4995437;28;20514;-88
2022/03/23 11:35:47;;;;;;;15.98;12.10;;;;;;;;;;4993674;28;20030;-87
2022/03/23 11:38:13;;;;;;;16.15;11.90;;;;;;;;;;4994786;28;20113;-87
2022/03/23 11:40:44;;;;;;;16.15;12.90;;;;;;;;;;4994604;28;20553;-86
2022/03/23 11:43:11;;;;;;;19.50;12.70;;;;;;;;;;4993592;28;20459;-87
2022/03/23 11:45:46;;;;;;;20.20;13.13;;;;;;;;;;4992910;28;20046;-86
2022/03/23 11:48:16;;;;;;;16.15;12.80;;;;;;;;;;4974825;28;20089;-86
2022/03/23 11:51:07;;;;;;;17.60;11.63;;;;;;;;;;4991859;28;20029;-86
2022/03/23 11:53:33;;;;;;;22.73;13.02;;;;;;;;;;5009449;28;20026;-87
2022/03/23 11:56:00;;;;;;;14.77;11.18;;;;;;;;;;5034356;28;20014;-89
2022/03/23 11:58:37;;;;;;;17.88;11.70;;;;;;;;;;5031443;28;20023;-88
2022/03/23 12:01:07;;;;;;;15.63;11.68;;;;;;;;;;5015172;28;20018;-86
2022/03/23 12:03:50;;;;;;;16.55;12.32;;;;;;;;;;4996035;28;20017;-87
2022/03/23 12:06:20;;;;;;;15.93;11.13;;;;;;;;;;4976149;28;20777;-87
2022/03/23 12:08:48;;;;;;;17.13;11.73;;;;;;;;;;4974154;28;20499;-88
2022/03/23 12:11:32;;;;;;;18.52;12.32;;;;;;;;;;4973768;28;20042;-86
2022/03/23 12:13:59;;;;;;;15.63;11.55;;;;;;;;;;4977245;28;20030;-86
2022/03/23 12:16:44;;;;;;;17.98;12.52;;;;;;;;;;4992983;28;20097;-85
2022/03/23 12:19:10;;;;;;;21.70;12.75;;;;;;;;;;4973692;28;20037;-85
2022/03/23 12:21:55;;;;;;;20.25;13.30;;;;;;;;;;4989196;28;20129;-86
2022/03/23 12:27:55;;;;;;;17.10;12.95;;;;;;;;;;4935597;28;20026;-85
2022/03/23 12:30:51;;;;;;;17.75;12.88;;;;;;;;;;4985024;28;20026;-86
2022/03/23 12:33:20;;;;;;;19.50;12.95;;;;;;;;;;4976963;28;20140;-86
2022/03/23 12:35:47;;;;;;;20.60;12.45;;;;;;;;;;4994446;28;20027;-86
2022/03/23 12:38:19;;;;;;;16.75;12.10;;;;;;;;;;4994134;28;20105;-87
2022/03/23 12:40:46;;;;;;;17.17;12.65;;;;;;;;;;4989752;28;20031;-87
2022/03/23 12:43:49;;;;;;;16.50;11.50;;;;;;;;;;4984267;28;20026;-89
2022/03/23 12:46:22;;;;;;;17.10;12.98;;;;;;;;;;4895022;29;20115;-87
2022/03/23 13:00:09;;;;;;;32.53;16.58;;;;;;;;;;4991655;28;20042;-84
2022/03/23 13:02:40;;;;;;;16.88;11.63;;;;;;;;;;4979322;28;20026;-87
2022/03/23 13:05:10;;;;;;;19.42;11.55;;;;;;;;;;4978225;28;20087;-88
2022/03/23 13:07:41;;;;;;;20.67;12.27;;;;;;;;;;4995388;28;20054;-86
2022/03/23 13:10:11;;;;;;;19.27;12.32;;;;;;;;;;4977092;28;20030;-87
2022/03/23 13:12:38;;;;;;;18.50;12.52;;;;;;;;;;4996714;28;20026;-87
2022/03/23 13:15:17;;;;;;;17.88;12.57;;;;;;;;;;5014817;28;20050;-87
2022/03/23 13:17:48;;;;;;;19.20;12.93;;;;;;;;;;5001980;28;20110;-87
2022/03/23 13:20:15;;;;;;;20.27;12.52;;;;;;;;;;4994462;28;20080;-87
2022/03/23 13:22:42;;;;;;;22.52;13.57;;;;;;;;;;4977051;28;20023;-87
2022/03/23 13:25:10;;;;;;;22.45;14.23;;;;;;;;;;4994525;28;20071;-86
2022/03/23 13:27:38;;;;;;;23.17;15.05;;;;;;;;;;4994822;28;20065;-85
2022/03/23 13:30:05;;;;;;;21.38;14.05;;;;;;;;;;4997891;28;20097;-85
2022/03/23 13:32:48;;;;;;;22.27;14.60;;;;;;;;;;4981157;28;20038;-86
2022/03/23 13:35:18;;;;;;;22.75;14.68;;;;;;;;;;4998561;28;20412;-86
2022/03/23 13:37:56;;;;;;;21.02;14.75;;;;;;;;;;4998717;28;20098;-86
2022/03/23 13:40:30;;;;;;;19.00;13.98;;;;;;;;;;4981395;28;20030;-85
2022/03/23 13:43:21;;;;;;;22.17;13.93;;;;;;;;;;4981863;28;20094;-85
2022/03/23 13:45:47;;;;;;;;;;;;;;;;;;4996504;28;20033;-86
2022/03/23 13:48:34;;;;;;;23.35;13.43;;;;;;;;;;4996751;28;19925;-87
2022/03/23 13:51:17;;;;;;;21.17;13.48;;;;;;;;;;5015449;28;20104;-87
2022/03/23 13:53:48;;;;;;;18.55;12.65;;;;;;;;;;4978299;28;20039;-87
2022/03/23 13:56:17;;;;;;;18.08;13.15;;;;;;;;;;5008131;28;20011;-88
2022/03/23 13:58:44;;;;;;;17.15;13.02;;;;;;;;;;5019339;28;20018;-90
2022/03/23 14:01:11;;;;;;;23.88;13.35;;;;;;;;;;4996165;28;20097;-87
2022/03/23 14:03:37;;;;;;;16.77;12.50;;;;;;;;;;4979140;28;20101;-88
2022/03/23 14:06:04;;;;;;;20.88;13.88;;;;;;;;;;4978074;28;20462;-87
2022/03/23 14:08:33;;;;;;;18.23;12.88;;;;;;;;;;4979179;28;20018;-88
2022/03/23 14:10:59;;;;;;;16.20;11.57;;;;;;;;;;4978949;28;20041;-87
2022/03/23 14:13:29;;;;;;;17.77;13.30;;;;;;;;;;4986625;28;20081;-88
2022/03/23 14:15:59;;;;;;;16.45;13.30;;;;;;;;;;4966226;28;20424;-86
2022/03/23 14:18:31;;;;;;;17.83;13.50;;;;;;;;;;4994360;28;20043;-88
2022/03/23 14:20:57;;;;;;;18.40;13.77;;;;;;;;;;4996481;28;20026;-88
2022/03/23 14:23:28;;;;;;;18.25;13.60;;;;;;;;;;4991072;28;20027;-87
2022/03/23 14:25:54;;;;;;;19.85;13.93;;;;;;;;;;4960270;28;20023;-86
2022/03/23 14:28:28;;;;;;;18.35;14.20;;;;;;;;;;4977153;28;20041;-88
2022/03/23 14:30:58;;;;;;;19.88;15.50;;;;;;;;;;4973128;28;20080;-87
2022/03/23 14:33:25;;;;;;;19.40;14.13;;;;;;;;;;4997461;28;20490;-87
2022/03/23 14:35:53;;;;;;;19.00;13.88;;;;;;;;;;5000963;28;20033;-87
2022/03/23 14:38:20;;;;;;;22.45;13.93;;;;;;;;;;4997395;28;20399;-86
2022/03/23 14:40:48;;;;;;;21.05;13.85;;;;;;;;;;4996753;28;20019;-86
2022/03/23 14:43:31;;;;;;;20.77;14.27;;;;;;;;;;5024847;22;20836;-88
2022/03/23 14:46:20;;;;;;;19.25;14.55;;;;;;;;;;4991495;28;20037;-84
2022/03/23 14:48:46;;;;;;;20.83;14.30;;;;;;;;;;5005511;28;20112;-83
2022/03/23 14:51:12;;;;;;;21.77;15.90;;;;;;;;;;5018066;28;20037;-86
2022/03/23 14:53:38;;;;;;;21.35;14.63;;;;;;;;;;4997071;28;20036;-86
2022/03/23 14:56:05;;;;;;;21.90;14.85;;;;;;;;;;5021282;28;20048;-86
2022/03/23 14:58:35;;;;;;;17.05;13.20;;;;;;;;;;5019592;28;20050;-87
2022/03/23 15:01:05;;;;;;;18.58;14.55;;;;;;;;;;5020162;28;20025;-88
2022/03/23 15:03:32;;;;;;;19.17;14.43;;;;;;;;;;5008020;28;20033;-87
2022/03/23 15:14:28;;;;;;;27.80;15.65;;;;;;;;;;5037797;28;20029;-87
2022/03/23 15:16:54;;;;;;;20.63;14.35;;;;;;;;;;5022024;28;20026;-85
2022/03/23 15:19:20;;;;;;;20.98;15.30;;;;;;;;;;5038403;28;20049;-87
2022/03/23 15:21:46;;;;;;;24.05;15.32;;;;;;;;;;5037638;28;20041;-87
2022/03/23 15:29:27;;;;;;;19.15;14.80;;;;;;;;;;6010705;22;20020;-87
2022/03/23 15:32:07;;;;;;;22.35;14.60;;;;;;;;;;5264177;23;20058;-88
2022/03/23 15:34:33;;;;;;;22.08;12.43;;;;;;;;;;5020386;28;20030;-87
2022/03/23 15:36:59;;;;;;;21.27;13.48;;;;;;;;;;5021477;28;20015;-86
2022/03/23 15:39:31;;;;;;;16.83;13.40;;;;;;;;;;5021159;28;20093;-87
2022/03/23 15:41:59;;;;;;;16.88;12.38;;;;;;;;;;5037890;28;20014;-86
2022/03/23 15:44:27;;;;;;;17.38;12.32;;;;;;;;;;5037827;28;20014;-87
2022/03/23 15:46:54;;;;;;;18.70;12.23;;;;;;;;;;5038488;28;20037;-88
2022/03/23 15:49:20;;;;;;;17.80;12.75;;;;;;;;;;5021470;28;20085;-88
2022/03/23 15:51:46;;;;;;;18.75;13.90;;;;;;;;;;5025804;28;20037;-86
2022/03/23 15:54:13;;;;;;;18.13;14.10;;;;;;;;;;5014492;28;20307;-85
2022/03/23 15:56:40;;;;;;;22.10;14.68;;;;;;;;;;4996388;28;20029;-87